Time;durP1;ratioP1;P1;durP2;ratioP2;P2;SDS_P1;SDS_P2;PMS_P1;PMS_P2;Temp;Humidity;BMP_temperature;BMP_pressure;BME280_temperature;BME280_humidity;BME280_pressure;Samples;Min_cycle;Max_cycle;Signal;HPM_P1;HPM_P2
2023/12/21 00:00:45;;;;;;;6.00;3.40;;;;;;;3.30;86.85;98587.71;220613;1253;205426;-68
2023/12/21 00:06:10;;;;;;;8.00;2.20;;;;;;;3.32;86.78;98588.50;220606;1253;139397;-69
2023/12/21 00:11:17;;;;;;;2.70;1.90;;;;;;;3.34;87.10;98588.69;218633;1256;139367;-66
2023/12/21 00:16:22;;;;;;;4.50;2.20;;;;;;;3.38;87.09;98590.30;219947;1253;141506;-68
2023/12/21 00:21:27;;;;;;;2.70;2.20;;;;;;;3.40;87.00;98587.73;218854;1252;141040;-67
2023/12/21 00:26:34;;;;;;;3.70;1.90;;;;;;;3.44;87.17;98576.02;219093;1253;139724;-66
2023/12/21 00:31:38;;;;;;;3.90;2.70;;;;;;;3.47;87.36;98572.10;219414;1253;140365;-67
2023/12/21 00:36:47;;;;;;;5.40;2.20;;;;;;;3.51;86.98;98561.41;219413;1257;139151;-66
2023/12/21 00:41:51;;;;;;;;;;;;;;;3.54;87.34;98559.44;219206;1254;140160;-67
2023/12/21 00:46:55;;;;;;;6.80;2.10;;;;;;;3.54;86.90;98559.96;218894;1257;126091;-67
2023/12/21 00:52:00;;;;;;;2.10;1.60;;;;;;;3.55;87.21;98555.73;218239;1255;139381;-67
2023/12/21 00:57:04;;;;;;;7.40;2.50;;;;;;;3.54;87.01;98555.83;219355;1254;139558;-67
2023/12/21 01:02:12;;;;;;;4.50;2.10;;;;;;;3.53;87.32;98557.54;218789;1255;141447;-67
2023/12/21 01:07:22;;;;;;;8.20;2.20;;;;;;;3.55;87.20;98552.09;218390;1253;139772;-66
2023/12/21 01:12:31;;;;;;;9.80;2.90;;;;;;;3.56;87.28;98549.54;218849;1256;140347;-67
2023/12/21 01:17:38;;;;;;;3.10;1.50;;;;;;;3.56;87.22;98542.02;218959;1254;139283;-66
2023/12/21 01:22:43;;;;;;;3.80;2.00;;;;;;;3.57;87.31;98531.98;219408;1253;139910;-67
2023/12/21 01:27:48;;;;;;;3.20;1.90;;;;;;;3.58;87.20;98519.67;220033;1254;139592;-68
2023/12/21 01:32:54;;;;;;;3.50;2.10;;;;;;;3.60;87.25;98512.84;220103;1252;140225;-66
2023/12/21 01:37:58;;;;;;;4.60;1.80;;;;;;;3.60;87.48;98504.95;218430;1256;140369;-68
2023/12/21 01:43:03;;;;;;;2.30;1.40;;;;;;;3.58;87.46;98492.91;220995;1253;140569;-68
2023/12/21 01:48:09;;;;;;;8.20;2.90;;;;;;;3.57;87.38;98481.71;220941;1253;139065;-68
2023/12/21 01:53:16;;;;;;;4.50;1.80;;;;;;;3.57;87.73;98478.24;219736;1253;139778;-67
2023/12/21 01:58:20;;;;;;;3.50;2.60;;;;;;;3.58;87.42;98475.69;219486;1253;141409;-66
2023/12/21 02:03:25;;;;;;;7.20;2.90;;;;;;;3.55;87.39;98464.05;219424;1253;140137;-68
2023/12/21 02:08:31;;;;;;;4.00;1.90;;;;;;;3.54;87.62;98457.73;218162;1254;139349;-66
2023/12/21 02:13:36;;;;;;;12.80;9.40;;;;;;;3.52;87.73;98444.41;219461;1253;140745;-65
2023/12/21 02:18:42;;;;;;;13.10;7.80;;;;;;;3.52;87.81;98429.98;218557;1253;139643;-65
2023/12/21 02:23:50;;;;;;;5.70;4.20;;;;;;;3.51;87.78;98429.73;219289;1253;140344;-65
2023/12/21 02:28:55;;;;;;;3.30;3.10;;;;;;;3.50;88.08;98421.02;219838;1256;139922;-66
2023/12/21 02:34:00;;;;;;;3.20;2.90;;;;;;;3.48;87.88;98406.68;219182;1253;139258;-66
2023/12/21 02:39:05;;;;;;;9.80;3.70;;;;;;;3.49;87.92;98394.76;218908;1257;139399;-66
2023/12/21 02:44:09;;;;;;;4.60;3.00;;;;;;;3.49;88.20;98383.29;218475;1253;140631;-66
2023/12/21 02:49:13;;;;;;;7.20;5.10;;;;;;;3.48;88.29;98372.28;218138;1254;139095;-69
2023/12/21 02:54:17;;;;;;;4.80;2.50;;;;;;;3.48;88.46;98359.02;219417;1253;139609;-67
2023/12/21 02:59:21;;;;;;;3.20;2.80;;;;;;;3.42;88.57;98346.33;218295;1253;139681;-67
2023/12/21 03:04:26;;;;;;;5.70;1.80;;;;;;;3.35;88.66;98340.15;218594;1254;140084;-66
2023/12/21 03:09:31;;;;;;;2.90;2.70;;;;;;;3.30;88.87;98321.70;219409;1253;139810;-69
2023/12/21 03:14:35;;;;;;;2.40;2.30;;;;;;;3.28;89.21;98311.96;218034;1253;140205;-67
2023/12/21 03:19:41;;;;;;;2.90;1.90;;;;;;;3.27;89.36;98298.02;218118;1253;140947;-67
2023/12/21 03:24:46;;;;;;;2.60;2.00;;;;;;;3.23;89.46;98294.16;218512;1257;141057;-67
2023/12/21 03:29:51;;;;;;;3.50;2.10;;;;;;;3.22;89.73;98280.45;219216;1254;139266;-67
2023/12/21 03:34:56;;;;;;;5.40;1.80;;;;;;;3.21;89.88;98268.66;220868;1257;140240;-68
2023/12/21 03:40:00;;;;;;;1.40;1.20;;;;;;;3.16;89.82;98256.89;220846;1255;140108;-68
2023/12/21 03:45:04;;;;;;;2.20;1.70;;;;;;;3.13;89.84;98246.27;220918;1253;139808;-69
2023/12/21 03:50:09;;;;;;;1.80;1.60;;;;;;;3.14;90.21;98235.77;220960;1256;139324;-68
2023/12/21 03:55:14;;;;;;;2.70;1.70;;;;;;;3.14;90.02;98222.49;220976;1254;139549;-70
2023/12/21 04:00:19;;;;;;;1.50;1.40;;;;;;;3.15;90.42;98212.35;218947;1254;139599;-68
2023/12/21 04:05:24;;;;;;;2.80;2.50;;;;;;;3.14;90.33;98205.11;218568;1254;139956;-66
2023/12/21 04:10:29;;;;;;;2.80;2.00;;;;;;;3.11;90.45;98188.39;219103;1254;140888;-68
2023/12/21 04:15:34;;;;;;;2.00;1.80;;;;;;;3.06;90.72;98167.65;220651;1255;139907;-67
2023/12/21 04:20:39;;;;;;;2.90;2.40;;;;;;;3.07;90.89;98155.29;218324;1257;139256;-67
2023/12/21 04:25:44;;;;;;;4.00;2.10;;;;;;;3.09;90.86;98141.39;219282;1256;139466;-67
2023/12/21 04:30:48;;;;;;;2.40;1.80;;;;;;;3.06;90.99;98123.54;218181;1257;139436;-67
2023/12/21 04:35:53;;;;;;;2.40;2.20;;;;;;;3.04;91.21;98109.01;218153;1254;140286;-68
2023/12/21 04:40:58;;;;;;;2.20;2.00;;;;;;;3.01;91.52;98096.89;218644;1257;139463;-67
2023/12/21 04:46:06;;;;;;;1.90;1.60;;;;;;;3.01;91.74;98095.20;218588;1257;139742;-68
2023/12/21 04:51:17;;;;;;;2.40;2.20;;;;;;;2.99;92.11;98082.40;218924;1259;139259;-67
2023/12/21 04:56:22;;;;;;;3.90;2.60;;;;;;;2.97;91.83;98072.21;218289;1257;139513;-68
2023/12/21 05:01:26;;;;;;;1.90;1.80;;;;;;;2.97;92.43;98067.88;218191;1254;139332;-67
2023/12/21 05:06:31;;;;;;;1.90;1.70;;;;;;;2.98;92.76;98056.53;218871;1256;139551;-68
2023/12/21 05:11:36;;;;;;;1.90;1.80;;;;;;;2.98;92.40;98039.60;218350;1257;139279;-67
2023/12/21 05:16:40;;;;;;;9.50;2.90;;;;;;;2.98;92.66;98021.58;218643;1256;139151;-67
2023/12/21 05:21:45;;;;;;;2.30;2.10;;;;;;;2.99;92.65;98016.66;219095;1258;140274;-66
2023/12/21 05:26:50;;;;;;;4.30;2.90;;;;;;;3.00;92.82;98006.64;219879;1254;139765;-67
2023/12/21 05:31:55;;;;;;;2.70;2.10;;;;;;;3.02;93.04;98000.73;219296;1255;139459;-67
2023/12/21 05:37:00;;;;;;;3.20;2.00;;;;;;;3.03;93.00;97997.08;220852;1254;139511;-70
2023/12/21 05:42:04;;;;;;;4.80;2.70;;;;;;;3.08;93.35;97985.09;219256;1257;139439;-70
2023/12/21 05:47:08;;;;;;;3.20;2.70;;;;;;;3.10;93.27;97982.36;218310;1257;139112;-69
2023/12/21 05:52:15;;;;;;;3.00;1.70;;;;;;;3.14;93.73;97978.44;218270;1254;139489;-70
2023/12/21 05:57:21;;;;;;;4.50;1.90;;;;;;;3.17;93.58;97969.04;220729;1254;140144;-69
2023/12/21 06:02:24;;;;;;;4.90;2.10;;;;;;;3.21;93.89;97972.34;218163;1254;140084;-70
2023/12/21 06:07:29;;;;;;;2.80;2.20;;;;;;;3.21;93.74;97961.59;219316;1256;139449;-70
2023/12/21 06:12:34;;;;;;;1.70;1.60;;;;;;;3.22;93.90;97948.71;218999;1254;140366;-70
2023/12/21 06:17:39;;;;;;;1.60;1.50;;;;;;;3.23;93.90;97938.20;219111;1253;139050;-70
2023/12/21 06:22:43;;;;;;;1.50;1.30;;;;;;;3.23;93.99;97934.67;218353;1254;140243;-69
2023/12/21 06:27:48;;;;;;;2.00;1.40;;;;;;;3.26;94.07;97925.89;218152;1253;141554;-66
2023/12/21 06:32:51;;;;;;;1.30;1.20;;;;;;;3.27;94.34;97927.91;218681;1254;140352;-67
2023/12/21 06:37:56;;;;;;;1.90;1.80;;;;;;;3.26;94.24;97922.21;218593;1254;140780;-67
2023/12/21 06:43:01;;;;;;;1.30;1.20;;;;;;;3.25;94.13;97913.64;218885;1254;139260;-66
2023/12/21 06:48:05;;;;;;;1.00;1.00;;;;;;;3.24;94.37;97912.69;218095;1254;139287;-67
2023/12/21 06:53:15;;;;;;;1.60;1.10;;;;;;;3.23;94.38;97913.40;218064;1254;139492;-67
2023/12/21 06:58:19;;;;;;;1.20;1.20;;;;;;;3.24;94.85;97911.84;218157;1254;139448;-67
2023/12/21 07:03:23;;;;;;;1.60;1.50;;;;;;;3.23;94.48;97900.55;218982;1254;139534;-68
2023/12/21 07:08:28;;;;;;;1.70;1.20;;;;;;;3.24;94.86;97897.10;218340;1257;139991;-69
2023/12/21 07:13:32;;;;;;;1.60;1.50;;;;;;;3.25;95.05;97901.42;218891;1253;140734;-68
2023/12/21 07:18:36;;;;;;;1.60;1.50;;;;;;;3.27;95.11;97891.73;218453;1254;140479;-69
2023/12/21 07:23:41;;;;;;;1.50;1.10;;;;;;;3.29;95.10;97886.80;219848;1254;139564;-70
2023/12/21 07:28:45;;;;;;;0.80;0.80;;;;;;;3.33;95.45;97874.80;218049;1257;139428;-67
2023/12/21 07:33:51;;;;;;;1.50;1.40;;;;;;;3.38;95.68;97866.98;220086;1252;139768;-69
2023/12/21 07:38:56;;;;;;;0.90;0.80;;;;;;;3.43;95.74;97866.91;219826;1254;139912;-70
2023/12/21 07:44:01;;;;;;;1.00;0.90;;;;;;;3.49;95.77;97841.07;221116;1254;139762;-70
2023/12/21 07:49:06;;;;;;;2.20;1.30;;;;;;;3.56;95.66;97840.48;221019;1254;139877;-70
2023/12/21 07:54:12;;;;;;;1.10;1.00;;;;;;;3.64;96.05;97837.23;221112;1253;140268;-70
2023/12/21 07:59:20;;;;;;;1.60;1.10;;;;;;;3.70;96.05;97827.15;219888;1254;140807;-70
2023/12/21 08:04:27;;;;;;;1.70;1.60;;;;;;;3.75;95.91;97816.70;219038;1252;138978;-69
2023/12/21 08:09:32;;;;;;;1.30;1.20;;;;;;;3.83;96.42;97807.94;219384;1254;140052;-69
2023/12/21 08:14:37;;;;;;;2.90;1.90;;;;;;;3.88;96.31;97796.75;218737;1253;139500;-68
2023/12/21 08:19:44;;;;;;;4.30;1.50;;;;;;;3.93;96.86;97781.27;219729;1253;139278;-69
2023/12/21 08:24:51;;;;;;;1.10;1.10;;;;;;;3.97;96.17;97765.80;218561;1255;143217;-68
2023/12/21 08:29:56;;;;;;;1.50;1.40;;;;;;;4.00;96.42;97752.64;218474;1254;139370;-69
2023/12/21 08:35:04;;;;;;;2.50;2.30;;;;;;;4.01;96.77;97739.84;219247;1254;139917;-69
2023/12/21 08:40:10;;;;;;;1.70;1.50;;;;;;;4.05;96.81;97733.77;218613;1254;139311;-68
2023/12/21 08:45:15;;;;;;;2.00;1.30;;;;;;;4.12;96.95;97730.77;219243;1253;139457;-69
2023/12/21 08:50:21;;;;;;;1.40;1.30;;;;;;;4.16;97.20;97725.31;218880;1253;139117;-69
2023/12/21 08:55:30;;;;;;;3.20;2.70;;;;;;;4.17;96.97;97712.67;218109;1254;140235;-69
2023/12/21 09:00:35;;;;;;;2.40;2.10;;;;;;;4.17;97.19;97707.08;219010;1254;139144;-69
2023/12/21 09:05:40;;;;;;;2.40;2.20;;;;;;;4.20;97.13;97695.93;218273;1254;139459;-69
2023/12/21 09:10:46;;;;;;;6.20;2.40;;;;;;;4.23;97.41;97687.02;218495;1254;140174;-69
2023/12/21 09:15:50;;;;;;;4.50;1.80;;;;;;;4.25;97.13;97666.63;219440;1254;139656;-70
2023/12/21 09:20:56;;;;;;;3.40;1.90;;;;;;;4.28;97.29;97664.12;218358;1253;139648;-68
2023/12/21 09:26:01;;;;;;;2.40;1.80;;;;;;;4.30;97.34;97662.25;220117;1253;139415;-69
2023/12/21 09:31:07;;;;;;;2.90;2.10;;;;;;;4.32;97.41;97641.79;219963;1254;140204;-69
2023/12/21 09:36:11;;;;;;;4.40;2.30;;;;;;;4.36;97.06;97634.15;220942;1253;140410;-69
2023/12/21 09:41:16;;;;;;;4.10;2.40;;;;;;;4.41;97.03;97617.11;220918;1253;140189;-70
2023/12/21 09:46:23;;;;;;;2.20;1.80;;;;;;;4.47;97.20;97600.40;220845;1252;140004;-69
2023/12/21 09:51:29;;;;;;;2.00;1.40;;;;;;;4.51;96.89;97586.16;221218;1253;139619;-70
2023/12/21 09:56:34;;;;;;;2.60;2.00;;;;;;;4.56;96.96;97567.28;220142;1253;141712;-70
2023/12/21 10:01:37;;;;;;;2.00;1.70;;;;;;;4.60;96.49;97560.64;218664;1253;139360;-69
2023/12/21 10:06:42;;;;;;;1.70;1.60;;;;;;;4.60;96.97;97550.45;219867;1254;139038;-69
2023/12/21 10:11:47;;;;;;;3.10;2.10;;;;;;;4.62;96.96;97537.75;219360;1255;139794;-69
2023/12/21 10:16:51;;;;;;;3.60;1.90;;;;;;;4.61;96.59;97524.13;218687;1253;139381;-68
2023/12/21 10:21:57;;;;;;;2.10;1.70;;;;;;;4.64;96.91;97501.79;218956;1253;140252;-68
2023/12/21 10:27:03;;;;;;;1.90;1.70;;;;;;;4.70;97.01;97487.17;218989;1253;139385;-68
2023/12/21 10:32:09;;;;;;;1.90;1.40;;;;;;;4.72;97.08;97477.05;218216;1254;139232;-68
2023/12/21 10:37:17;;;;;;;3.20;2.10;;;;;;;4.74;97.28;97457.38;218278;1253;140629;-67
2023/12/21 10:42:22;;;;;;;1.90;1.20;;;;;;;4.75;97.09;97433.00;218926;1254;139308;-68
2023/12/21 10:47:27;;;;;;;2.90;1.70;;;;;;;4.75;96.96;97417.11;218436;1254;139308;-68
2023/12/21 10:52:32;;;;;;;3.80;1.30;;;;;;;4.75;97.16;97399.33;218486;1254;139612;-70
2023/12/21 10:57:41;;;;;;;2.20;2.10;;;;;;;4.75;97.26;97385.23;219319;1254;140725;-68
2023/12/21 11:02:47;;;;;;;2.40;1.50;;;;;;;4.82;97.37;97379.10;218949;1254;140230;-68
2023/12/21 11:07:55;;;;;;;3.70;1.90;;;;;;;4.83;97.21;97363.39;218221;1256;139593;-68
2023/12/21 11:13:01;;;;;;;6.20;3.60;;;;;;;4.84;97.28;97354.52;220496;1253;140396;-69
2023/12/21 11:18:13;;;;;;;3.90;3.10;;;;;;;4.86;97.02;97341.08;219394;1254;139549;-67
2023/12/21 11:23:18;;;;;;;2.40;1.80;;;;;;;4.90;97.56;97324.17;219495;1257;139576;-70
2023/12/21 11:28:28;;;;;;;2.60;1.80;;;;;;;4.93;97.13;97307.50;220991;1253;140337;-71
2023/12/21 11:33:33;;;;;;;3.00;1.70;;;;;;;4.96;97.26;97286.56;220830;1252;139491;-70
2023/12/21 11:38:47;;;;;;;1.80;1.60;;;;;;;4.98;97.03;97264.66;218013;1253;153122;-70
2023/12/21 11:44:06;;;;;;;2.00;1.30;;;;;;;5.01;97.03;97248.30;220933;1254;139536;-71
2023/12/21 11:49:23;;;;;;;1.50;1.40;;;;;;;4.97;96.71;97240.05;220988;1254;139792;-70
2023/12/21 11:54:29;;;;;;;2.40;1.90;;;;;;;4.98;96.77;97231.92;219410;1253;139648;-70
2023/12/21 11:59:33;;;;;;;1.50;1.10;;;;;;;5.02;97.06;97230.83;218174;1256;139728;-70
2023/12/21 12:04:38;;;;;;;1.50;1.40;;;;;;;5.00;97.53;97208.59;218338;1254;140497;-69
2023/12/21 12:09:45;;;;;;;2.10;1.50;;;;;;;4.97;97.51;97190.89;218987;1254;159998;-69
2023/12/21 12:14:52;;;;;;;1.20;1.10;;;;;;;4.96;97.13;97178.95;218293;1253;140418;-68
2023/12/21 12:19:56;;;;;;;1.80;1.50;;;;;;;4.93;97.11;97166.33;219116;1253;139213;-69
2023/12/21 12:25:02;;;;;;;4.90;1.90;;;;;;;4.90;97.06;97144.46;218701;1255;140507;-68
2023/12/21 12:30:09;;;;;;;1.50;1.30;;;;;;;4.87;97.23;97119.98;218841;1253;139751;-69
2023/12/21 12:35:15;;;;;;;2.40;1.40;;;;;;;4.83;97.46;97108.20;218404;1253;139628;-68
2023/12/21 12:40:23;;;;;;;2.70;1.70;;;;;;;4.79;97.50;97082.27;218686;1253;139267;-69
2023/12/21 12:45:27;;;;;;;2.00;1.80;;;;;;;4.79;97.11;97074.78;218628;1256;140318;-68
2023/12/21 12:50:32;;;;;;;2.20;1.90;;;;;;;4.78;97.28;97055.36;218262;1254;139539;-68
2023/12/21 12:55:38;;;;;;;3.00;1.70;;;;;;;4.75;97.56;97043.48;219370;1253;139940;-69
2023/12/21 13:00:43;;;;;;;1.10;1.00;;;;;;;4.72;97.28;97020.20;218332;1257;140031;-68
2023/12/21 13:05:48;;;;;;;3.60;1.50;;;;;;;4.69;97.67;97010.85;218208;1257;139223;-68
2023/12/21 13:11:04;;;;;;;1.40;1.30;;;;;;;4.70;98.02;96996.61;219400;1253;139624;-69
2023/12/21 13:16:09;;;;;;;1.50;1.40;;;;;;;4.69;98.23;96985.10;218967;1253;139655;-68
2023/12/21 13:21:15;;;;;;;4.10;1.70;;;;;;;4.70;97.98;96965.47;218567;1253;139220;-68
2023/12/21 13:26:19;;;;;;;3.10;1.60;;;;;;;4.68;98.14;96951.38;219979;1254;139418;-69
2023/12/21 13:31:25;;;;;;;1.80;1.60;;;;;;;4.68;98.01;96935.02;220962;1253;140602;-69
2023/12/21 13:36:30;;;;;;;3.40;1.30;;;;;;;4.68;97.83;96921.19;220481;1253;139352;-68
2023/12/21 13:41:35;;;;;;;1.80;1.70;;;;;;;4.70;97.95;96910.73;221169;1253;139894;-69
2023/12/21 13:46:41;;;;;;;1.80;1.30;;;;;;;4.70;97.70;96887.58;218282;1252;139534;-68
2023/12/21 13:51:49;;;;;;;1.40;1.30;;;;;;;4.69;97.69;96875.65;219977;1254;141388;-68
2023/12/21 13:56:59;;;;;;;1.40;1.40;;;;;;;4.66;97.82;96855.64;219200;1255;245265;-68
2023/12/21 14:02:19;;;;;;;3.10;1.60;;;;;;;4.63;97.75;96846.26;218435;1253;140242;-67
2023/12/21 14:07:26;;;;;;;4.50;2.20;;;;;;;4.60;97.76;96826.33;219973;1253;139802;-69
2023/12/21 14:12:32;;;;;;;4.10;1.80;;;;;;;4.61;98.03;96811.96;218664;1253;139495;-68
2023/12/21 14:17:39;;;;;;;1.10;1.10;;;;;;;4.58;97.69;96790.41;219510;1253;141242;-67
2023/12/21 14:22:48;;;;;;;90.10;31.20;;;;;;;4.55;97.70;96772.01;219374;1253;140367;-68
2023/12/21 14:27:55;;;;;;;31.60;26.70;;;;;;;4.52;97.81;96745.85;218973;1254;139645;-65
2023/12/21 14:33:03;;;;;;;6.40;5.10;;;;;;;4.50;97.83;96731.46;219092;1254;140661;-66
2023/12/21 14:38:09;;;;;;;2.00;1.60;;;;;;;4.48;98.01;96713.67;218815;1254;139521;-66
2023/12/21 14:43:16;;;;;;;1.20;1.10;;;;;;;4.45;97.80;96700.13;219673;1253;141378;-68
2023/12/21 14:48:22;;;;;;;3.40;1.30;;;;;;;4.42;97.99;96667.59;218751;1254;139799;-66
2023/12/21 14:53:31;;;;;;;;;;;;;;;4.38;97.94;96669.61;218452;1253;139376;-67
2023/12/21 14:58:37;;;;;;;3.10;2.40;;;;;;;4.31;97.96;96641.30;218879;1256;125416;-66
2023/12/21 15:03:46;;;;;;;3.50;2.10;;;;;;;4.28;98.37;96629.30;218540;1254;139480;-66
2023/12/21 15:08:52;;;;;;;3.70;2.20;;;;;;;4.28;98.37;96613.37;218663;1257;139790;-70
2023/12/21 15:13:58;;;;;;;3.80;2.30;;;;;;;4.29;98.46;96588.79;218896;1254;139349;-71
2023/12/21 15:19:04;;;;;;;3.90;2.10;;;;;;;4.30;98.44;96572.43;218571;1254;139370;-71
2023/12/21 15:24:10;;;;;;;2.80;1.80;;;;;;;4.29;98.31;96549.46;218570;1254;139444;-70
2023/12/21 15:29:20;;;;;;;2.50;1.60;;;;;;;4.27;98.69;96541.67;219522;1253;140160;-71
2023/12/21 15:34:26;;;;;;;2.40;1.60;;;;;;;4.28;98.61;96524.52;218765;1253;139373;-69
2023/12/21 15:39:31;;;;;;;2.90;2.00;;;;;;;4.27;99.04;96507.55;218420;1254;139175;-69
2023/12/21 15:44:36;;;;;;;5.40;2.30;;;;;;;4.27;98.99;96490.89;218851;1253;370019;-68
2023/12/21 15:49:41;;;;;;;2.10;1.90;;;;;;;4.30;98.85;96490.69;219961;1253;139422;-70
2023/12/21 15:54:45;;;;;;;2.80;2.50;;;;;;;4.31;99.11;96467.59;219725;1254;139603;-67
2023/12/21 15:59:49;;;;;;;6.50;2.20;;;;;;;4.33;99.35;96446.59;219658;1253;141626;-70
2023/12/21 16:04:55;;;;;;;5.20;2.50;;;;;;;4.36;99.37;96430.39;220249;1256;140435;-68
2023/12/21 16:10:02;;;;;;;2.90;2.70;;;;;;;4.41;99.04;96405.83;219302;1252;139171;-68
2023/12/21 16:15:07;;;;;;;3.30;1.40;;;;;;;4.44;99.03;96381.23;218877;1254;139844;-67
2023/12/21 16:20:17;;;;;;;2.00;1.40;;;;;;;4.46;99.18;96370.52;218872;1254;141250;-71
2023/12/21 16:25:22;;;;;;;25.80;17.80;;;;;;;4.49;99.60;96371.95;218362;1253;139621;-68
2023/12/21 16:30:30;;;;;;;5.30;3.80;;;;;;;4.52;99.36;96359.70;219196;1253;142132;-69
2023/12/21 16:35:35;;;;;;;5.60;4.20;;;;;;;4.54;99.45;96351.29;219172;1253;139506;-68
2023/12/21 16:40:40;;;;;;;5.40;2.80;;;;;;;4.59;99.66;96335.61;218389;1253;140369;-67
2023/12/21 16:45:45;;;;;;;3.10;2.20;;;;;;;4.63;99.36;96338.84;219041;1253;139168;-68
2023/12/21 16:50:51;;;;;;;3.20;3.00;;;;;;;4.66;99.64;96328.95;218230;1254;140306;-70
2023/12/21 16:55:57;;;;;;;5.60;5.10;;;;;;;4.68;99.59;96310.98;218962;1253;139581;-69
2023/12/21 17:01:01;;;;;;;4.40;4.00;;;;;;;4.68;99.68;96297.59;219392;1253;139600;-68
2023/12/21 17:06:06;;;;;;;3.80;3.40;;;;;;;4.69;99.70;96288.55;219296;1257;139764;-67
2023/12/21 17:11:12;;;;;;;3.20;2.50;;;;;;;4.71;99.65;96268.48;219350;1257;139730;-69
2023/12/21 17:16:22;;;;;;;2.30;2.10;;;;;;;4.74;99.85;96275.52;218870;1253;141086;-68
2023/12/21 17:21:27;;;;;;;2.40;2.00;;;;;;;4.75;99.65;96275.34;219030;1257;140153;-69
2023/12/21 17:26:32;;;;;;;5.70;2.60;;;;;;;4.77;99.38;96261.62;219644;1253;139549;-71
2023/12/21 17:31:37;;;;;;;2.40;2.20;;;;;;;4.79;99.73;96245.77;218243;1255;139257;-70
2023/12/21 17:36:42;;;;;;;3.30;2.30;;;;;;;4.78;99.86;96212.10;219524;1253;140506;-70
2023/12/21 17:41:49;;;;;;;3.10;2.00;;;;;;;4.78;99.84;96195.74;220075;1253;139720;-71
2023/12/21 17:46:53;;;;;;;2.50;1.90;;;;;;;4.80;99.85;96183.63;220250;1253;140996;-68
2023/12/21 17:52:01;;;;;;;4.20;1.90;;;;;;;4.81;99.88;96176.13;219170;1257;139776;-68
2023/12/21 17:57:09;;;;;;;3.10;1.90;;;;;;;4.83;100.00;96174.89;219463;1253;140262;-69
2023/12/21 18:02:17;;;;;;;3.70;2.30;;;;;;;4.86;99.99;96164.61;220477;1254;140404;-70
2023/12/21 18:07:28;;;;;;;2.90;1.30;;;;;;;4.89;99.86;96146.56;218517;1254;140347;-70
2023/12/21 18:12:36;;;;;;;2.80;2.00;;;;;;;4.94;100.00;96157.72;218203;1257;139349;-72
2023/12/21 18:17:43;;;;;;;2.80;1.60;;;;;;;4.97;100.00;96151.66;218952;1253;140627;-67
2023/12/21 18:22:52;;;;;;;2.80;1.80;;;;;;;4.98;100.00;96120.61;218740;1257;140694;-67
2023/12/21 18:27:56;;;;;;;3.50;1.30;;;;;;;5.02;100.00;96141.10;218940;1253;141849;-69
2023/12/21 18:33:04;;;;;;;2.70;2.20;;;;;;;5.05;100.00;96139.52;219164;1253;139819;-72
2023/12/21 18:38:09;;;;;;;3.20;1.70;;;;;;;5.11;100.00;96118.05;218778;1253;139796;-69
2023/12/21 18:43:14;;;;;;;3.50;1.80;;;;;;;5.16;100.00;96118.57;218584;1253;141941;-70
2023/12/21 18:54:59;;;;;;;3.10;1.70;;;;;;;5.26;100.00;96108.20;218588;1253;249103;-73
2023/12/21 19:00:05;;;;;;;2.50;1.50;;;;;;;5.30;100.00;96090.96;218575;1254;139462;-73
2023/12/21 19:05:10;;;;;;;3.20;1.40;;;;;;;5.35;100.00;96087.45;220379;1257;139736;-73
2023/12/21 19:10:15;;;;;;;2.40;2.00;;;;;;;5.41;100.00;96076.16;219792;1257;140406;-73
2023/12/21 19:15:19;;;;;;;2.10;1.50;;;;;;;5.46;100.00;96084.59;218493;1257;140815;-71
2023/12/21 19:20:24;;;;;;;2.30;1.80;;;;;;;5.50;100.00;96078.86;219610;1253;141275;-69
2023/12/21 19:25:28;;;;;;;2.40;1.60;;;;;;;5.54;100.00;96085.86;218640;1253;139789;-68
2023/12/21 19:30:32;;;;;;;1.40;1.30;;;;;;;5.57;100.00;96068.31;220972;1253;140196;-69
2023/12/21 19:35:37;;;;;;;4.10;2.00;;;;;;;5.59;100.00;96084.28;220985;1253;139913;-69
2023/12/21 19:40:41;;;;;;;3.50;2.50;;;;;;;5.62;100.00;96104.27;220881;1253;140574;-68
2023/12/21 19:45:46;;;;;;;3.10;2.10;;;;;;;5.66;100.00;96118.89;219677;1253;139943;-68
2023/12/21 19:50:50;;;;;;;3.00;1.60;;;;;;;5.68;100.00;96149.50;219693;1253;140965;-68
2023/12/21 19:55:54;;;;;;;1.90;1.50;;;;;;;5.69;100.00;96144.98;219411;1255;139768;-68
2023/12/21 20:00:59;;;;;;;3.90;1.50;;;;;;;5.69;100.00;96150.33;219748;1253;139498;-70
2023/12/21 20:06:05;;;;;;;4.90;3.20;;;;;;;5.69;100.00;96155.89;217681;1258;153853;-70
2023/12/21 20:11:12;;;;;;;2.10;1.80;;;;;;;5.69;100.00;96162.39;218754;1254;141560;-71
2023/12/21 20:16:17;;;;;;;2.40;2.20;;;;;;;5.67;100.00;96159.02;217982;1256;139921;-70
2023/12/21 20:21:27;;;;;;;3.00;1.90;;;;;;;5.64;100.00;96160.34;218256;1253;140733;-68
2023/12/21 20:26:33;;;;;;;1.70;1.40;;;;;;;5.60;100.00;96165.59;218741;1253;140329;-68
2023/12/21 20:31:38;;;;;;;2.00;1.60;;;;;;;5.61;100.00;96167.11;218470;1254;139477;-68
2023/12/21 20:36:43;;;;;;;3.60;1.50;;;;;;;5.61;100.00;96184.59;219185;1253;140476;-69
2023/12/21 20:41:49;;;;;;;1.60;1.40;;;;;;;5.60;99.91;96188.84;219088;1257;141910;-69
2023/12/21 20:46:56;;;;;;;2.40;1.40;;;;;;;5.60;100.00;96195.60;218696;1253;140301;-68
2023/12/21 20:52:00;;;;;;;3.50;2.30;;;;;;;5.58;99.95;96201.77;219107;1253;139828;-68
2023/12/21 20:57:11;;;;;;;4.20;2.10;;;;;;;5.57;99.88;96193.27;219552;1254;139836;-68
2023/12/21 21:02:16;;;;;;;2.80;1.40;;;;;;;5.51;99.85;96206.94;219242;1254;139759;-67
2023/12/21 21:07:22;;;;;;;3.10;1.30;;;;;;;5.46;99.52;96222.56;219030;1255;140260;-68
2023/12/21 21:12:27;;;;;;;2.40;1.40;;;;;;;5.46;99.65;96240.26;218338;1254;141598;-69
2023/12/21 21:17:32;;;;;;;2.80;1.50;;;;;;;5.46;99.64;96243.17;220638;1254;139962;-69
2023/12/21 21:22:39;;;;;;;3.50;1.20;;;;;;;5.40;99.24;96246.73;220553;1256;140582;-69
2023/12/21 21:27:43;;;;;;;4.70;1.50;;;;;;;5.37;98.99;96249.73;219491;1254;139413;-70
2023/12/21 21:32:51;;;;;;;4.10;1.40;;;;;;;5.36;98.97;96263.11;220762;1257;139849;-69
2023/12/21 21:37:55;;;;;;;2.30;2.00;;;;;;;5.36;98.44;96256.63;219558;1253;141243;-70
2023/12/21 21:43:01;;;;;;;4.30;2.20;;;;;;;5.34;97.93;96257.59;220434;1256;139736;-71
2023/12/21 21:48:07;;;;;;;3.60;1.60;;;;;;;5.32;98.15;96252.18;219707;1256;140110;-70
2023/12/21 21:53:12;;;;;;;7.80;1.60;;;;;;;5.31;98.00;96253.73;217861;1257;140003;-70
2023/12/21 21:58:16;;;;;;;2.10;1.90;;;;;;;5.29;98.07;96264.53;219308;1255;139716;-71
2023/12/21 22:03:20;;;;;;;7.80;3.50;;;;;;;5.27;97.52;96280.29;218583;1254;141349;-70
2023/12/21 22:08:25;;;;;;;14.70;4.10;;;;;;;5.23;97.44;96278.86;219496;1254;140416;-70
2023/12/21 22:13:29;;;;;;;5.80;2.00;;;;;;;5.20;97.42;96282.39;218418;1257;141954;-69
2023/12/21 22:18:34;;;;;;;7.50;3.40;;;;;;;5.17;97.16;96285.67;218402;1254;139742;-68
2023/12/21 22:23:41;;;;;;;1.70;1.20;;;;;;;5.14;96.87;96295.58;218221;1254;139629;-69
2023/12/21 22:28:46;;;;;;;7.20;1.50;;;;;;;5.11;97.03;96288.49;218622;1257;140479;-71
2023/12/21 22:33:52;;;;;;;3.70;1.90;;;;;;;5.05;96.66;96294.99;218946;1254;141622;-70
2023/12/21 22:38:56;;;;;;;4.40;1.80;;;;;;;4.97;96.09;96293.19;219360;1255;139961;-71
2023/12/21 22:44:00;;;;;;;5.90;1.90;;;;;;;4.88;95.74;96300.54;219105;1256;139541;-69
2023/12/21 22:49:04;;;;;;;8.10;3.70;;;;;;;4.79;95.61;96329.02;218599;1256;143931;-68
2023/12/21 22:54:08;;;;;;;5.50;1.70;;;;;;;4.71;95.24;96336.27;219651;1253;140581;-68
2023/12/21 22:59:12;;;;;;;6.20;2.40;;;;;;;4.61;94.84;96348.93;218548;1254;139952;-69
2023/12/21 23:04:16;;;;;;;5.00;1.70;;;;;;;4.52;95.00;96373.57;218830;1252;139697;-68
2023/12/21 23:09:20;;;;;;;6.20;2.30;;;;;;;4.47;94.92;96380.56;219208;1255;139606;-69
2023/12/21 23:14:23;;;;;;;8.60;2.10;;;;;;;4.45;95.08;96374.47;220495;1254;139433;-69
2023/12/21 23:19:27;;;;;;;2.60;1.60;;;;;;;4.45;94.88;96373.10;220942;1253;139845;-69
2023/12/21 23:24:33;;;;;;;8.00;2.60;;;;;;;4.49;94.59;96371.38;220687;1254;139736;-69
2023/12/21 23:29:36;;;;;;;5.20;1.60;;;;;;;4.53;94.73;96374.09;219660;1256;141855;-69
2023/12/21 23:34:40;;;;;;;9.20;1.90;;;;;;;4.55;94.29;96379.35;219729;1254;141145;-70
2023/12/21 23:39:44;;;;;;;12.20;2.40;;;;;;;4.56;93.87;96369.05;220339;1256;140475;-69
2023/12/21 23:44:53;;;;;;;4.80;1.80;;;;;;;4.51;92.97;96368.36;219954;1254;142450;-70